createdAt,value
2019-02-23T00:02:08.919Z,45.00
2019-02-23T00:04:37.387Z,19.87
2019-02-23T00:07:05.846Z,21.80
2019-02-23T00:09:34.305Z,29.77
2019-02-23T00:12:04.694Z,51.80
2019-02-23T00:14:33.039Z,34.90
2019-02-23T00:17:01.518Z,58.93
2019-02-23T00:19:30.050Z,97.67
2019-02-23T00:21:58.506Z,50.03
2019-02-23T00:24:27.061Z,29.83
2019-02-23T00:26:55.508Z,45.60
2019-02-23T00:29:23.973Z,36.37
2019-02-23T00:31:52.492Z,28.43
2019-02-23T00:34:20.946Z,38.47
2019-02-23T00:36:49.414Z,22.00
2019-02-23T00:39:17.883Z,33.73
2019-02-23T00:41:46.341Z,57.47
2019-02-23T00:44:14.886Z,62.53
2019-02-23T00:46:43.376Z,35.30
2019-02-23T00:49:11.838Z,27.87
2019-02-23T00:51:40.289Z,26.40
2019-02-23T00:54:08.777Z,20.87
2019-02-23T00:56:37.241Z,37.07
2019-02-23T00:59:05.711Z,44.27
2019-02-23T01:01:34.171Z,17.07
2019-02-23T01:04:02.649Z,23.97
2019-02-23T01:06:31.158Z,24.97
2019-02-23T01:08:59.631Z,20.60
2019-02-23T01:11:28.198Z,31.17
2019-02-23T01:13:56.663Z,25.77
2019-02-23T01:16:25.199Z,35.00
2019-02-23T01:18:53.659Z,38.53
2019-02-23T01:21:22.145Z,22.17
2019-02-23T01:23:50.596Z,23.20
2019-02-23T01:26:19.116Z,47.83
2019-02-23T01:28:47.610Z,24.27
2019-02-23T01:31:16.074Z,12.67
2019-02-23T01:33:44.529Z,16.07
2019-02-23T01:36:12.994Z,20.40
2019-02-23T01:38:41.566Z,15.60
2019-02-23T01:41:10.299Z,15.63
2019-02-23T01:43:38.841Z,27.40
2019-02-23T01:46:07.315Z,13.70
2019-02-23T01:48:35.797Z,12.40
2019-02-23T01:51:04.318Z,11.10
2019-02-23T01:53:32.915Z,10.20
2019-02-23T01:56:01.482Z,16.57
2019-02-23T01:58:30.315Z,19.47
2019-02-23T02:00:59.054Z,16.70
2019-02-23T02:03:27.588Z,9.33
2019-02-23T02:05:56.390Z,9.87
2019-02-23T02:08:24.950Z,10.57
2019-02-23T02:10:53.585Z,8.10
2019-02-23T02:13:22.168Z,7.13
2019-02-23T02:15:51.122Z,7.10
2019-02-23T02:18:19.714Z,8.97
2019-02-23T02:20:48.226Z,9.33
2019-02-23T02:23:16.830Z,10.13
2019-02-23T02:25:45.301Z,8.53
2019-02-23T02:28:13.784Z,9.20
2019-02-23T02:30:42.301Z,9.83
2019-02-23T02:33:10.807Z,9.47
2019-02-23T02:35:39.406Z,10.33
2019-02-23T02:38:07.872Z,10.73
2019-02-23T02:40:36.408Z,8.63
2019-02-23T02:43:04.875Z,10.13
2019-02-23T02:45:33.340Z,9.13
2019-02-23T02:48:01.840Z,8.97
2019-02-23T02:50:30.303Z,8.10
2019-02-23T02:52:58.761Z,10.07
2019-02-23T02:55:27.226Z,7.63
2019-02-23T02:57:55.696Z,8.13
2019-02-23T03:00:24.169Z,7.23
2019-02-23T03:02:52.657Z,7.93
2019-02-23T03:05:21.208Z,7.97
2019-02-23T03:07:49.659Z,7.13
2019-02-23T03:10:18.123Z,7.30
2019-02-23T03:12:46.623Z,6.40
2019-02-23T03:15:15.154Z,7.10
2019-02-23T03:17:43.665Z,6.20
2019-02-23T03:20:12.119Z,6.33
2019-02-23T03:22:40.661Z,7.13
2019-02-23T03:25:09.195Z,7.80
2019-02-23T03:27:37.792Z,7.03
2019-02-23T03:30:09.320Z,6.93
2019-02-23T03:32:37.869Z,7.93
2019-02-23T03:35:06.769Z,8.17
2019-02-23T03:37:35.233Z,7.80
2019-02-23T03:40:04.064Z,7.13
2019-02-23T03:42:32.514Z,8.30
2019-02-23T03:45:00.983Z,10.63
2019-02-23T03:47:29.556Z,14.43
2019-02-23T03:49:58.013Z,8.77
2019-02-23T03:52:26.475Z,9.90
2019-02-23T03:54:55.250Z,8.53
2019-02-23T03:57:23.784Z,8.37
2019-02-23T03:59:52.310Z,8.37
2019-02-23T04:02:20.961Z,7.57
2019-02-23T04:04:49.497Z,7.77
2019-02-23T04:07:17.989Z,9.70
2019-02-23T04:09:46.456Z,7.30
2019-02-23T04:12:14.921Z,9.50
2019-02-23T04:14:43.418Z,9.03
2019-02-23T04:17:12.333Z,14.63
2019-02-23T04:19:40.957Z,13.80
2019-02-23T04:22:09.493Z,9.07
2019-02-23T04:24:37.958Z,11.23
2019-02-23T04:27:06.419Z,10.70
2019-02-23T04:29:34.883Z,9.93
2019-02-23T04:32:03.373Z,14.87
2019-02-23T04:34:31.892Z,12.03
2019-02-23T04:37:00.355Z,12.70
2019-02-23T04:39:28.834Z,11.17
2019-02-23T04:41:57.375Z,11.83
2019-02-23T04:44:25.925Z,7.83
2019-02-23T04:46:54.455Z,6.97
2019-02-23T04:49:25.869Z,7.93
2019-02-23T04:51:53.131Z,8.00
2019-02-23T04:54:21.631Z,7.97
2019-02-23T04:56:50.110Z,8.93
2019-02-23T04:59:18.570Z,6.57
2019-02-23T05:01:47.123Z,8.47
2019-02-23T05:04:15.573Z,8.63
2019-02-23T05:06:44.036Z,9.80
2019-02-23T05:09:12.501Z,8.87
2019-02-23T05:11:41.031Z,10.20
2019-02-23T05:14:09.495Z,11.37
2019-02-23T05:16:37.948Z,10.93
2019-02-23T05:19:06.486Z,11.13
2019-02-23T05:21:35.013Z,11.60
2019-02-23T05:24:03.496Z,11.83
2019-02-23T05:26:32.068Z,11.10
2019-02-23T05:29:00.593Z,10.53
2019-02-23T05:31:30.217Z,10.83
2019-02-23T05:33:58.708Z,11.07
2019-02-23T05:36:27.157Z,10.70
2019-02-23T05:38:55.610Z,10.30
2019-02-23T05:41:24.138Z,11.10
2019-02-23T05:43:52.605Z,11.50
2019-02-23T05:46:21.066Z,11.77
2019-02-23T05:48:49.550Z,12.10
2019-02-23T05:51:18.151Z,10.97
2019-02-23T05:53:46.734Z,11.13
2019-02-23T05:56:16.331Z,12.37
2019-02-23T05:58:45.139Z,14.20
2019-02-23T06:01:13.665Z,22.50
2019-02-23T06:03:42.155Z,25.20
2019-02-23T06:06:11.501Z,19.37
2019-02-23T06:08:40.115Z,15.07
2019-02-23T06:11:08.587Z,11.50
2019-02-23T06:13:37.193Z,10.53
2019-02-23T06:16:05.824Z,11.70
2019-02-23T06:18:34.294Z,11.73
2019-02-23T06:21:02.745Z,11.43
2019-02-23T06:23:31.210Z,12.03
2019-02-23T06:25:59.678Z,14.13
2019-02-23T06:28:28.197Z,14.53
2019-02-23T06:30:56.682Z,13.27
2019-02-23T06:33:25.283Z,38.83
2019-02-23T06:35:53.746Z,49.13
2019-02-23T06:38:22.217Z,27.40
2019-02-23T06:40:50.691Z,19.07
2019-02-23T06:43:19.153Z,23.90
2019-02-23T06:45:47.733Z,26.03
2019-02-23T06:48:16.253Z,27.57
2019-02-23T06:50:44.705Z,24.37
2019-02-23T06:53:13.215Z,23.23
2019-02-23T06:55:42.058Z,26.37
2019-02-23T06:58:10.516Z,13.17
2019-02-23T07:00:39.455Z,11.30
2019-02-23T07:03:07.901Z,10.73
2019-02-23T07:05:36.461Z,8.20
2019-02-23T07:08:05.020Z,7.70
2019-02-23T07:10:33.478Z,7.97
2019-02-23T07:13:01.978Z,9.17
2019-02-23T07:15:30.508Z,8.80
2019-02-23T07:17:59.910Z,9.40
2019-02-23T07:20:28.724Z,10.53
2019-02-23T07:22:57.181Z,9.60
2019-02-23T07:25:25.729Z,9.17
2019-02-23T07:28:13.539Z,9.23
2019-02-23T07:30:41.980Z,9.40
2019-02-23T07:33:10.739Z,8.80
2019-02-23T07:35:39.201Z,8.93
2019-02-23T07:38:07.759Z,8.63
2019-02-23T07:40:36.349Z,9.67
2019-02-23T07:43:04.834Z,10.53
2019-02-23T07:45:33.358Z,10.00
2019-02-23T07:48:01.819Z,10.77
2019-02-23T07:50:30.319Z,11.20
2019-02-23T07:52:58.774Z,12.13
2019-02-23T07:55:27.237Z,10.87
2019-02-23T07:57:55.728Z,10.10
2019-02-23T08:00:24.202Z,10.53
2019-02-23T08:02:52.648Z,9.70
2019-02-23T08:05:21.139Z,11.00
2019-02-23T08:07:49.589Z,12.90
2019-02-23T08:10:18.066Z,9.90
2019-02-23T08:12:46.606Z,9.20
2019-02-23T08:15:15.062Z,9.93
2019-02-23T08:17:43.586Z,10.13
2019-02-23T08:20:13.407Z,10.73
2019-02-23T08:22:41.942Z,12.13
2019-02-23T08:25:12.588Z,10.93
2019-02-23T08:27:41.195Z,14.13
2019-02-23T08:30:12.798Z,9.37
2019-02-23T08:32:41.300Z,8.73
2019-02-23T08:35:09.817Z,9.60
2019-02-23T08:37:38.356Z,9.80
2019-02-23T08:40:09.931Z,12.13
2019-02-23T08:42:38.466Z,15.43
2019-02-23T08:45:09.460Z,10.93
2019-02-23T08:47:38.019Z,13.57
2019-02-23T08:50:09.633Z,12.50
2019-02-23T08:52:48.125Z,13.17
2019-02-23T08:55:10.008Z,11.90
2019-02-23T08:57:38.481Z,10.20
2019-02-23T09:00:10.110Z,11.43
2019-02-23T09:02:38.709Z,12.23
2019-02-23T09:05:09.136Z,12.47
2019-02-23T09:07:37.596Z,12.80
2019-02-23T09:10:08.608Z,12.53
2019-02-23T09:12:37.098Z,9.93
2019-02-23T09:15:06.912Z,9.77
2019-02-23T09:17:35.444Z,14.30
2019-02-23T09:20:05.269Z,9.07
2019-02-23T09:22:33.803Z,7.50
2019-02-23T09:25:02.274Z,8.90
2019-02-23T09:27:30.869Z,7.20
2019-02-23T09:29:59.353Z,8.93
2019-02-23T09:32:27.819Z,10.13
2019-02-23T09:34:56.274Z,8.93
2019-02-23T09:37:24.731Z,8.47
2019-02-23T09:39:53.198Z,8.17
2019-02-23T09:42:21.658Z,9.50
2019-02-23T09:44:50.140Z,8.27
2019-02-23T09:47:18.643Z,7.27
2019-02-23T09:49:47.096Z,7.77
2019-02-23T09:52:15.555Z,8.57
2019-02-23T09:54:44.077Z,6.57
2019-02-23T09:57:12.573Z,5.60
2019-02-23T09:59:41.026Z,7.80
2019-02-23T10:02:09.557Z,6.27
2019-02-23T10:04:38.055Z,5.47
2019-02-23T10:07:06.513Z,5.40
2019-02-23T10:09:34.983Z,4.33
2019-02-23T10:12:03.540Z,4.70
2019-02-23T10:14:31.991Z,5.00
2019-02-23T10:17:00.443Z,5.00
2019-02-23T10:19:28.932Z,5.37
2019-02-23T10:21:57.385Z,6.37
2019-02-23T10:24:25.839Z,5.60
2019-02-23T10:26:54.375Z,6.17
2019-02-23T10:29:22.825Z,4.90
2019-02-23T10:31:51.271Z,4.93
2019-02-23T10:34:19.751Z,4.60
2019-02-23T10:36:48.271Z,5.50
2019-02-23T10:39:16.736Z,5.77
2019-02-23T10:41:45.298Z,5.30
2019-02-23T10:44:13.827Z,4.97
2019-02-23T10:46:42.268Z,4.83
2019-02-23T10:49:10.726Z,5.13
2019-02-23T10:51:39.165Z,5.27
2019-02-23T10:54:07.722Z,5.13
2019-02-23T10:56:36.178Z,5.40
2019-02-23T10:59:04.706Z,5.43
2019-02-23T11:01:33.336Z,5.23
2019-02-23T11:04:01.771Z,4.60
2019-02-23T11:06:30.231Z,4.40
2019-02-23T11:08:59.009Z,4.50
2019-02-23T11:11:27.453Z,4.67
2019-02-23T11:13:55.936Z,4.43
2019-02-23T11:16:24.417Z,5.33
2019-02-23T11:18:52.862Z,4.57
2019-02-23T11:21:21.373Z,3.93
2019-02-23T11:23:49.835Z,4.70
2019-02-23T11:26:18.658Z,14.47
2019-02-23T11:28:47.203Z,5.83
2019-02-23T11:31:15.722Z,5.40
2019-02-23T11:33:44.169Z,4.50
2019-02-23T11:36:12.691Z,4.60
2019-02-23T11:38:41.172Z,4.17
2019-02-23T11:41:09.670Z,3.83
2019-02-23T11:43:38.114Z,4.57
2019-02-23T11:46:06.589Z,6.87
2019-02-23T11:48:35.043Z,8.80
2019-02-23T11:51:03.494Z,6.70
2019-02-23T11:53:31.985Z,7.80
2019-02-23T11:56:00.449Z,7.30
2019-02-23T11:58:28.978Z,8.03
2019-02-23T12:00:57.454Z,7.97
2019-02-23T12:03:25.907Z,6.67
2019-02-23T12:05:54.466Z,8.10
2019-02-23T12:08:22.926Z,6.60
2019-02-23T12:10:51.423Z,5.70
2019-02-23T12:13:19.884Z,6.33
2019-02-23T12:15:48.338Z,6.70
2019-02-23T12:18:16.801Z,6.03
2019-02-23T12:20:45.288Z,6.30
2019-02-23T12:23:13.809Z,9.30
2019-02-23T12:25:42.272Z,6.97
2019-02-23T12:28:10.728Z,6.40
2019-02-23T12:30:39.184Z,6.77
2019-02-23T12:33:07.746Z,6.50
2019-02-23T12:35:36.194Z,5.50
2019-02-23T12:38:04.658Z,5.37
2019-02-23T12:40:33.123Z,5.30
2019-02-23T12:43:01.644Z,6.50
2019-02-23T12:45:30.127Z,5.77
2019-02-23T12:47:58.587Z,5.33
2019-02-23T12:50:27.046Z,5.13
2019-02-23T12:52:55.575Z,5.00
2019-02-23T12:55:24.026Z,5.03
2019-02-23T12:57:52.474Z,11.43
2019-02-23T13:00:20.952Z,4.43
2019-02-23T13:02:49.407Z,6.93
2019-02-23T13:05:18.298Z,5.03
2019-02-23T13:07:46.842Z,7.00
2019-02-23T13:10:15.423Z,6.53
2019-02-23T13:12:52.972Z,8.47
2019-02-23T13:15:27.506Z,4.90
2019-02-23T13:18:14.111Z,12.63
2019-02-23T13:20:57.529Z,7.10
2019-02-23T13:23:46.906Z,6.40
2019-02-23T13:26:34.827Z,8.17
2019-02-23T13:29:41.254Z,6.03
2019-02-23T13:32:32.441Z,4.87
2019-02-23T13:35:20.574Z,6.90
2019-02-23T13:38:15.833Z,8.50
2019-02-23T13:41:00.202Z,11.57
2019-02-23T13:43:46.244Z,6.30
2019-02-23T13:46:26.875Z,7.90
2019-02-23T13:49:14.804Z,6.30
2019-02-23T13:51:58.223Z,6.87
2019-02-23T13:54:52.155Z,14.47
2019-02-23T13:57:35.251Z,5.67
2019-02-23T14:00:18.672Z,5.27
2019-02-23T14:03:06.810Z,6.10
2019-02-23T14:05:46.937Z,6.97
2019-02-23T14:08:24.191Z,5.43
2019-02-23T14:11:10.898Z,5.40
2019-02-23T14:14:02.657Z,6.97
2019-02-23T14:16:48.949Z,7.07
2019-02-23T14:19:44.075Z,12.07
2019-02-23T14:22:21.363Z,11.73
2019-02-23T14:25:21.368Z,5.60
2019-02-23T14:28:12.376Z,6.63
2019-02-23T14:31:03.426Z,5.90
2019-02-23T14:33:40.527Z,9.37
2019-02-23T14:36:30.188Z,6.07
2019-02-23T14:39:18.023Z,8.67
2019-02-23T14:42:01.546Z,8.63
2019-02-23T14:44:33.096Z,14.33
2019-02-23T14:47:07.209Z,7.40
2019-02-23T14:49:38.796Z,9.07
2019-02-23T14:52:40.219Z,6.10
2019-02-23T14:55:11.795Z,6.73
2019-02-23T14:57:55.278Z,7.53
2019-02-23T15:00:39.021Z,6.80
2019-02-23T15:03:25.684Z,8.17
2019-02-23T15:05:57.231Z,11.63
2019-02-23T15:08:37.785Z,8.63
2019-02-23T15:11:31.366Z,8.03
2019-02-23T15:14:11.947Z,8.27
2019-02-23T15:17:00.682Z,10.77
2019-02-23T15:19:50.668Z,10.07
2019-02-23T15:22:31.518Z,10.70
2019-02-23T15:25:18.084Z,7.67
2019-02-23T15:27:57.317Z,10.37
2019-02-23T15:30:29.910Z,7.63
2019-02-23T15:33:19.162Z,8.93
2019-02-23T15:35:53.376Z,8.13
2019-02-23T15:38:39.086Z,7.83
2019-02-23T15:41:13.163Z,8.20
2019-02-23T15:43:46.756Z,7.87
2019-02-23T15:46:27.567Z,7.87
2019-02-23T15:48:59.234Z,9.47
2019-02-23T15:51:27.753Z,7.53
2019-02-23T15:53:56.288Z,7.83
2019-02-23T15:56:24.810Z,9.37
2019-02-23T15:58:53.729Z,9.60
2019-02-23T16:01:24.999Z,11.40
2019-02-23T16:03:53.534Z,10.13
2019-02-23T16:06:22.016Z,9.87
2019-02-23T16:08:50.533Z,11.53
2019-02-23T16:11:19.183Z,10.80
2019-02-23T16:13:47.647Z,10.20
2019-02-23T16:16:16.203Z,12.10
2019-02-23T16:18:46.204Z,10.07
2019-02-23T16:21:14.658Z,9.87
2019-02-23T16:23:43.250Z,7.63
2019-02-23T16:26:11.799Z,8.67
2019-02-23T16:28:40.259Z,8.67
2019-02-23T16:31:08.710Z,7.70
2019-02-23T16:33:37.163Z,7.77
2019-02-23T16:36:05.622Z,7.17
2019-02-23T16:38:36.073Z,8.43
2019-02-23T16:41:05.548Z,7.70
2019-02-23T16:43:34.000Z,7.60
2019-02-23T16:46:02.447Z,6.87
2019-02-23T16:48:30.955Z,7.50
2019-02-23T16:50:59.557Z,6.93
2019-02-23T16:53:28.327Z,8.60
2019-02-23T16:55:56.783Z,8.43
2019-02-23T16:58:25.317Z,7.53
2019-02-23T17:00:53.786Z,7.63
2019-02-23T17:03:22.464Z,7.90
2019-02-23T17:05:50.924Z,8.73
2019-02-23T17:08:19.443Z,8.00
2019-02-23T17:10:47.959Z,8.53
2019-02-23T17:13:16.470Z,7.40
2019-02-23T17:15:44.930Z,7.70
2019-02-23T17:18:13.462Z,8.27
2019-02-23T17:20:42.043Z,25.40
2019-02-23T17:23:10.934Z,14.63
2019-02-23T17:25:39.403Z,33.40
2019-02-23T17:28:07.883Z,41.37
2019-02-23T17:30:36.410Z,40.77
2019-02-23T17:33:04.973Z,25.27
2019-02-23T17:35:33.454Z,19.03
2019-02-23T17:38:01.920Z,21.10
2019-02-23T17:40:30.389Z,19.73
2019-02-23T17:42:58.937Z,23.13
2019-02-23T17:45:27.455Z,23.63
2019-02-23T17:47:55.995Z,22.03
2019-02-23T17:50:24.511Z,26.57
2019-02-23T17:52:53.005Z,32.57
2019-02-23T17:55:21.476Z,32.87
2019-02-23T17:57:50.075Z,24.07
2019-02-23T18:00:20.184Z,21.43
2019-02-23T18:02:48.774Z,19.23
2019-02-23T18:05:17.298Z,17.47
2019-02-23T18:07:45.762Z,16.97
2019-02-23T18:10:19.083Z,21.70
2019-02-23T18:12:47.533Z,17.53
2019-02-23T18:15:15.997Z,21.37
2019-02-23T18:17:44.471Z,22.17
2019-02-23T18:20:13.985Z,24.63
2019-02-23T18:22:42.517Z,23.97
2019-02-23T18:25:10.982Z,25.30
2019-02-23T18:27:39.445Z,24.23
2019-02-23T18:30:11.601Z,23.27
2019-02-23T18:32:40.678Z,23.20
2019-02-23T18:35:09.914Z,25.53
2019-02-23T18:37:38.484Z,22.83
2019-02-23T18:40:08.649Z,22.57
2019-02-23T18:42:37.187Z,23.00
2019-02-23T18:45:08.221Z,24.13
2019-02-23T18:47:36.710Z,23.40
2019-02-23T18:50:07.024Z,25.63
2019-02-23T18:52:35.497Z,32.23
2019-02-23T18:55:04.839Z,30.93
2019-02-23T18:57:33.306Z,35.93
2019-02-23T19:00:14.121Z,52.50
2019-02-23T19:02:42.759Z,53.90
2019-02-23T19:05:12.864Z,56.50
2019-02-23T19:07:41.414Z,49.43
2019-02-23T19:10:12.218Z,44.43
2019-02-23T19:12:40.683Z,40.80
2019-02-23T19:15:12.058Z,38.00
2019-02-23T19:17:40.559Z,38.50
2019-02-23T19:20:14.340Z,35.20
2019-02-23T19:22:43.069Z,42.47
2019-02-23T19:25:12.108Z,46.97
2019-02-23T19:27:40.610Z,39.07
2019-02-23T19:30:13.966Z,30.63
2019-02-23T19:32:42.461Z,24.97
2019-02-23T19:35:11.007Z,24.70
2019-02-23T19:37:39.482Z,27.67
2019-02-23T19:40:09.639Z,31.63
2019-02-23T19:42:38.115Z,31.83
2019-02-23T19:45:11.684Z,23.97
2019-02-23T19:47:42.209Z,22.33
2019-02-23T19:50:19.826Z,24.00
2019-02-23T19:52:48.314Z,24.30
2019-02-23T19:55:17.535Z,21.63
2019-02-23T19:57:46.011Z,20.07
2019-02-23T20:00:14.510Z,20.83
2019-02-23T20:02:43.037Z,24.13
2019-02-23T20:05:11.668Z,23.90
2019-02-23T20:07:40.146Z,22.83
2019-02-23T20:10:10.233Z,21.03
2019-02-23T20:12:38.795Z,21.87
2019-02-23T20:15:10.065Z,20.87
2019-02-23T20:17:38.519Z,22.67
2019-02-23T20:20:08.330Z,19.07
2019-02-23T20:22:36.814Z,22.53
2019-02-23T20:25:07.554Z,20.93
2019-02-23T20:27:36.071Z,20.57
2019-02-23T20:30:07.396Z,20.97
2019-02-23T20:32:35.930Z,21.50
2019-02-23T20:35:05.666Z,24.27
2019-02-23T20:37:34.224Z,23.23
2019-02-23T20:40:02.674Z,23.00
2019-02-23T20:42:31.136Z,23.93
2019-02-23T20:44:59.603Z,27.37
2019-02-23T20:47:28.138Z,26.57
2019-02-23T20:49:56.945Z,27.07
2019-02-23T20:52:25.484Z,26.53
2019-02-23T20:54:53.986Z,24.43
2019-02-23T20:57:22.460Z,24.23
2019-02-23T20:59:50.995Z,23.80
2019-02-23T21:02:19.567Z,24.53
2019-02-23T21:04:48.048Z,23.83
2019-02-23T21:07:16.680Z,21.53
2019-02-23T21:09:45.235Z,22.13
2019-02-23T21:12:13.684Z,20.90
2019-02-23T21:14:42.149Z,21.63
2019-02-23T21:17:10.750Z,28.77
2019-02-23T21:19:39.217Z,23.07
2019-02-23T21:22:07.786Z,25.97
2019-02-23T21:24:36.249Z,26.70
2019-02-23T21:27:12.665Z,29.10
2019-02-23T21:29:34.974Z,30.03
2019-02-23T21:32:03.437Z,44.33
2019-02-23T21:34:31.983Z,39.80
2019-02-23T21:37:00.537Z,44.00
2019-02-23T21:39:29.102Z,24.23
2019-02-23T21:41:57.631Z,25.90
2019-02-23T21:44:26.082Z,20.53
2019-02-23T21:46:54.565Z,20.17
2019-02-23T21:49:23.023Z,19.17
2019-02-23T21:51:51.495Z,18.87
2019-02-23T21:54:19.965Z,18.47
2019-02-23T21:56:48.501Z,18.93
2019-02-23T21:59:16.971Z,19.37
2019-02-23T22:01:45.503Z,18.83
2019-02-23T22:04:14.035Z,19.63
2019-02-23T22:06:42.546Z,20.73
2019-02-23T22:09:11.212Z,21.73
2019-02-23T22:11:39.955Z,19.20
2019-02-23T22:14:08.409Z,21.70
2019-02-23T22:16:36.944Z,20.87
2019-02-23T22:19:05.853Z,22.83
2019-02-23T22:21:34.502Z,22.83
2019-02-23T22:24:02.966Z,20.83
2019-02-23T22:26:31.639Z,19.23
2019-02-23T22:29:00.212Z,19.20
2019-02-23T22:31:28.673Z,18.40
2019-02-23T22:33:57.159Z,17.63
2019-02-23T22:36:25.716Z,17.40
2019-02-23T22:38:54.394Z,17.70
2019-02-23T22:41:22.864Z,18.97
2019-02-23T22:43:51.321Z,16.43
2019-02-23T22:46:19.858Z,16.87
2019-02-23T22:48:48.349Z,17.60
2019-02-23T22:51:16.832Z,17.17
2019-02-23T22:53:45.333Z,17.53
2019-02-23T22:56:13.903Z,17.63
2019-02-23T22:58:42.406Z,17.70
2019-02-23T23:01:11.561Z,16.67
2019-02-23T23:03:40.256Z,17.73
2019-02-23T23:06:08.706Z,18.73
2019-02-23T23:08:37.171Z,19.17
2019-02-23T23:11:05.658Z,18.47
2019-02-23T23:13:34.120Z,20.07
2019-02-23T23:16:02.576Z,18.10
2019-02-23T23:18:31.080Z,32.60
2019-02-23T23:20:59.534Z,21.43
2019-02-23T23:23:27.998Z,19.87
2019-02-23T23:25:56.581Z,19.20
2019-02-23T23:28:25.040Z,17.67
2019-02-23T23:30:53.502Z,16.97
2019-02-23T23:33:22.030Z,17.87
2019-02-23T23:35:50.498Z,18.53
2019-02-23T23:38:19.087Z,17.77
2019-02-23T23:40:47.574Z,17.00
2019-02-23T23:43:16.025Z,17.57
2019-02-23T23:45:44.483Z,19.03
2019-02-23T23:48:12.936Z,18.53
2019-02-23T23:50:41.393Z,18.07
2019-02-23T23:53:09.879Z,17.13
2019-02-23T23:55:38.406Z,17.07
2019-02-23T23:58:06.905Z,17.40
